Time;durP1;ratioP1;P1;durP2;ratioP2;P2;SDS_P1;SDS_P2;PMS_P1;PMS_P2;Temp;Humidity;BMP_temperature;BMP_pressure;BME280_temperature;BME280_humidity;BME280_pressure;Samples;Min_cycle;Max_cycle;Signal;HPM_P1;HPM_P2
2023/05/18 00:01:09;;;;;;;0.00;0.00;;;4.20;99.90;;;2.68;78.70;102248.66;4992447;28;20038;-74
2023/05/18 00:03:35;;;;;;;0.00;0.00;;;4.20;99.90;;;2.63;78.85;102251.19;4991197;28;20030;-74
2023/05/18 00:06:03;;;;;;;0.47;0.00;;;4.20;99.90;;;2.62;79.20;102252.06;4994342;28;20048;-74
2023/05/18 00:08:36;;;;;;;0.00;0.00;;;4.10;99.90;;;2.61;78.86;102258.13;4993046;28;20125;-74
2023/05/18 00:11:04;;;;;;;0.00;0.00;;;4.10;99.90;;;2.61;79.41;102252.03;4999191;28;20871;-73
2023/05/18 00:13:30;;;;;;;0.00;0.00;;;4.10;99.90;;;2.58;79.72;102255.47;4992403;28;20037;-75
2023/05/18 00:15:56;;;;;;;1.65;0.10;;;4.10;99.90;;;2.54;79.99;102256.31;4989666;28;20104;-74
2023/05/18 00:18:23;;;;;;;0.00;0.00;;;4.00;99.90;;;2.51;80.51;102261.47;4993520;28;20406;-73
2023/05/18 00:20:59;;;;;;;0.00;0.00;;;4.00;99.90;;;2.47;80.65;102264.91;4993021;28;20068;-74
2023/05/18 00:23:29;;;;;;;0.00;0.00;;;4.00;99.90;;;2.45;80.60;102267.47;4992285;28;20091;-74
2023/05/18 00:26:00;;;;;;;0.00;0.00;;;4.00;99.90;;;2.44;80.88;102272.63;4994526;28;20052;-73
2023/05/18 00:28:27;;;;;;;0.00;0.00;;;4.00;99.90;;;2.43;80.69;102274.38;4994495;28;20096;-74
2023/05/18 00:30:54;;;;;;;0.05;0.05;;;3.90;99.90;;;2.44;81.11;102272.63;4991128;28;20030;-74
2023/05/18 00:33:21;;;;;;;0.00;0.00;;;3.90;99.90;;;2.42;81.09;102275.25;4991983;28;20049;-74
2023/05/18 00:35:48;;;;;;;0.20;0.20;;;3.90;99.90;;;2.41;81.51;102275.22;4990866;28;20065;-74
2023/05/18 00:38:14;;;;;;;0.30;0.30;;;3.90;99.90;;;2.41;81.61;102285.63;4995689;28;20042;-74
2023/05/18 00:40:41;;;;;;;0.00;0.00;;;3.90;99.90;;;2.41;83.14;102285.63;4978828;28;20042;-74
2023/05/18 00:43:07;;;;;;;0.00;0.00;;;3.90;99.90;;;2.43;83.91;102283.91;4995346;28;20041;-74
2023/05/18 00:45:33;;;;;;;0.00;0.00;;;3.90;99.90;;;2.44;84.65;102290.84;5007523;28;20399;-74
2023/05/18 00:47:58;;;;;;;0.00;0.00;;;4.00;99.90;;;2.49;85.02;102290.94;4991618;28;20061;-74
2023/05/18 00:50:25;;;;;;;0.00;0.00;;;4.00;99.90;;;2.47;85.95;102288.31;4992270;28;20121;-74
2023/05/18 00:52:51;;;;;;;0.00;0.00;;;4.00;99.90;;;2.46;87.66;102290.03;4990597;28;20035;-74
2023/05/18 00:55:17;;;;;;;0.00;0.00;;;4.00;99.90;;;2.48;87.26;102287.44;4993156;28;20032;-74
2023/05/18 00:57:46;;;;;;;0.10;0.10;;;4.00;99.90;;;2.50;86.50;102287.47;4991338;28;20046;-75
2023/05/18 01:00:14;;;;;;;0.10;0.00;;;4.00;99.90;;;2.49;85.68;102294.38;4992989;28;20034;-74
2023/05/18 01:02:44;;;;;;;0.00;0.00;;;4.00;99.90;;;2.42;85.04;102283.03;4992348;28;20038;-74
2023/05/18 01:05:12;;;;;;;0.00;0.00;;;3.90;99.90;;;2.36;84.37;102297.69;4993324;28;20440;-74
2023/05/18 01:07:41;;;;;;;0.00;0.00;;;3.90;99.90;;;2.28;83.93;102289.78;4993269;28;20619;-74
2023/05/18 01:10:08;;;;;;;0.00;0.00;;;3.80;99.90;;;2.20;83.24;102291.41;4996443;28;20027;-74
2023/05/18 01:12:59;;;;;;;0.00;0.00;;;3.70;99.90;;;2.05;82.78;102285.19;4996512;28;20112;-74
2023/05/18 01:15:34;;;;;;;0.20;0.20;;;3.60;99.90;;;1.96;82.17;102287.63;4975201;28;20574;-74
2023/05/18 01:18:44;;;;;;;0.00;0.00;;;3.50;99.90;;;1.92;81.68;102293.63;4995701;28;20026;-74
2023/05/18 01:21:18;;;;;;;0.00;0.00;;;3.50;99.90;;;1.90;82.00;102292.75;4983930;28;20022;-74
2023/05/18 01:24:08;;;;;;;0.00;0.00;;;3.50;99.90;;;1.88;82.25;102288.38;4991326;28;20033;-73
2023/05/18 01:26:39;;;;;;;0.55;0.15;;;3.40;99.90;;;1.86;82.22;102290.97;4992757;28;20560;-74
2023/05/18 01:29:10;;;;;;;0.00;0.00;;;3.40;99.90;;;1.84;82.24;102292.66;4989340;28;20026;-74
2023/05/18 01:31:36;;;;;;;0.08;0.03;;;3.40;99.90;;;1.82;82.20;102290.03;5006935;28;20056;-72
2023/05/18 01:34:02;;;;;;;0.00;0.00;;;3.40;99.90;;;1.78;82.48;102285.66;4991097;28;20665;-73
2023/05/18 01:36:28;;;;;;;0.00;0.00;;;3.30;99.90;;;1.77;82.43;102296.00;4991219;28;20038;-73
2023/05/18 01:38:56;;;;;;;0.00;0.00;;;3.30;99.90;;;1.74;82.25;102290.78;4991815;28;20031;-73
2023/05/18 01:41:32;;;;;;;0.20;0.20;;;3.30;99.90;;;1.69;82.50;102293.31;4992667;28;20482;-74
2023/05/18 01:44:23;;;;;;;0.08;0.08;;;3.30;99.90;;;1.69;82.99;102287.25;4973462;28;20076;-73
2023/05/18 01:47:05;;;;;;;0.00;0.00;;;3.20;99.90;;;1.69;83.05;102305.44;4992908;28;20045;-73
2023/05/18 01:49:47;;;;;;;0.00;0.00;;;3.20;99.90;;;1.68;83.48;102301.94;4997742;28;20045;-74
2023/05/18 01:52:28;;;;;;;0.20;0.20;;;3.20;99.90;;;1.71;83.24;102309.78;4990889;28;20104;-73
2023/05/18 01:54:59;;;;;;;0.00;0.00;;;3.30;99.90;;;1.73;83.90;102312.38;4992378;28;20046;-73
2023/05/18 01:57:28;;;;;;;0.00;0.00;;;3.30;99.90;;;1.77;83.86;102309.00;4989669;28;20442;-73
2023/05/18 01:59:55;;;;;;;0.00;0.00;;;3.30;99.90;;;1.78;83.73;102314.22;4988658;28;20038;-73
2023/05/18 02:02:21;;;;;;;0.15;0.03;;;3.30;99.90;;;1.78;83.52;102322.00;4990842;28;20431;-72
2023/05/18 02:04:48;;;;;;;0.00;0.00;;;3.30;99.90;;;1.78;83.17;102319.41;4989026;28;20080;-73
2023/05/18 02:07:14;;;;;;;0.30;0.08;;;3.30;99.90;;;1.79;83.15;102321.19;4993076;28;20041;-73
2023/05/18 02:09:40;;;;;;;0.00;0.00;;;3.30;99.90;;;1.81;83.30;102319.47;4960222;28;20047;-73
2023/05/18 02:12:06;;;;;;;0.00;0.00;;;3.30;99.90;;;1.81;82.76;102321.19;4990349;28;20052;-73
2023/05/18 02:14:32;;;;;;;0.00;0.00;;;3.40;99.90;;;1.79;82.56;102323.78;4992585;28;20114;-72
2023/05/18 02:16:58;;;;;;;0.08;0.08;;;3.30;99.90;;;1.80;82.40;102322.03;4995815;28;20050;-73
2023/05/18 02:19:24;;;;;;;0.00;0.00;;;3.30;99.90;;;1.74;82.51;102321.94;4996577;28;20034;-74
2023/05/18 02:21:50;;;;;;;0.00;0.00;;;3.20;99.90;;;1.60;82.35;102319.16;4988148;28;20030;-73
2023/05/18 02:24:19;;;;;;;0.00;0.00;;;3.10;99.90;;;1.46;81.99;102321.50;4989831;28;20415;-73
2023/05/18 02:26:44;;;;;;;0.00;0.00;;;3.00;99.90;;;1.35;81.43;102323.03;4981325;28;20034;-73
2023/05/18 02:29:10;;;;;;;0.00;0.00;;;2.90;99.90;;;1.27;81.05;102309.94;4971558;28;20038;-73
2023/05/18 02:31:37;;;;;;;0.00;0.00;;;2.80;99.90;;;1.19;81.29;102316.72;4975750;28;20034;-72
2023/05/18 02:34:06;;;;;;;0.00;0.00;;;2.80;99.90;;;1.13;81.31;102314.03;4970099;28;20859;-73
2023/05/18 02:36:38;;;;;;;0.00;0.00;;;2.70;99.90;;;1.11;81.45;102321.78;4971410;28;20491;-73
2023/05/18 02:39:10;;;;;;;0.00;0.00;;;2.70;99.90;;;1.11;81.57;102313.97;4984431;28;20041;-72
2023/05/18 02:41:36;;;;;;;0.03;0.03;;;2.70;99.90;;;1.08;81.84;102318.22;5008583;28;20416;-72
2023/05/18 02:44:03;;;;;;;0.00;0.00;;;2.70;99.90;;;1.05;82.08;102313.00;4990074;28;20034;-73
2023/05/18 02:46:30;;;;;;;0.00;0.00;;;2.60;99.90;;;1.02;82.16;102317.28;4982586;28;20034;-73
2023/05/18 02:48:57;;;;;;;0.00;0.00;;;2.60;99.90;;;1.01;81.69;102312.94;4990198;28;20058;-73
2023/05/18 02:51:23;;;;;;;0.00;0.00;;;2.60;99.90;;;1.02;81.91;102317.28;4987131;28;20033;-73
2023/05/18 02:53:50;;;;;;;0.00;0.00;;;2.60;99.90;;;1.05;81.80;102320.78;4987702;28;20036;-73
2023/05/18 02:56:17;;;;;;;0.10;0.05;;;2.60;99.90;;;1.08;81.91;102318.22;4987747;28;20046;-73
2023/05/18 02:58:43;;;;;;;0.00;0.00;;;2.60;99.90;;;1.09;81.49;102320.88;4989053;28;20234;-73
2023/05/18 03:01:13;;;;;;;0.00;0.00;;;2.60;99.90;;;1.11;81.88;102321.78;4987497;28;20030;-73
2023/05/18 03:03:40;;;;;;;0.00;0.00;;;2.70;99.90;;;1.16;81.85;102327.03;4986152;28;20045;-73
2023/05/18 03:06:07;;;;;;;0.00;0.00;;;2.70;99.90;;;1.22;81.72;102329.75;4988702;28;21483;-72
2023/05/18 03:08:35;;;;;;;0.00;0.00;;;2.70;99.90;;;1.25;82.38;102322.00;4988347;28;20129;-73
2023/05/18 03:11:02;;;;;;;0.00;0.00;;;2.80;99.90;;;1.32;82.00;102331.66;4988490;28;20034;-73
2023/05/18 03:13:28;;;;;;;0.00;0.00;;;2.90;99.90;;;1.38;82.01;102329.19;4989939;28;20045;-73
2023/05/18 03:15:55;;;;;;;0.00;0.00;;;2.90;99.90;;;1.46;82.26;102331.00;5004070;28;20042;-73
2023/05/18 03:18:23;;;;;;;0.00;0.00;;;3.00;99.90;;;1.55;82.38;102338.94;4997905;28;20092;-73
2023/05/18 03:20:50;;;;;;;0.10;0.00;;;3.00;99.90;;;1.63;82.24;102335.63;4988752;28;20067;-72
2023/05/18 03:23:18;;;;;;;0.00;0.00;;;3.10;99.90;;;1.72;82.52;102334.91;4988261;28;20041;-72
2023/05/18 03:25:44;;;;;;;0.00;0.00;;;3.20;99.90;;;1.79;82.27;102341.97;4990577;28;20069;-73
2023/05/18 03:28:10;;;;;;;0.13;0.00;;;3.20;99.90;;;1.86;82.08;102342.91;4988553;28;20386;-73
2023/05/18 03:30:36;;;;;;;0.80;0.30;;;3.30;99.90;;;1.92;81.92;102342.13;4992352;28;20529;-73
2023/05/18 03:33:02;;;;;;;0.00;0.00;;;3.30;99.90;;;1.97;81.58;102345.69;4987065;28;20060;-72
2023/05/18 03:35:28;;;;;;;0.22;0.10;;;3.40;99.90;;;2.03;81.07;102353.53;4992313;28;20023;-72
2023/05/18 03:37:54;;;;;;;0.03;0.00;;;3.50;99.90;;;2.11;80.84;102349.34;4996659;28;20026;-72
2023/05/18 03:40:20;;;;;;;4.55;0.20;;;3.50;99.90;;;2.23;80.60;102357.31;4991955;28;20026;-73
2023/05/18 03:42:46;;;;;;;0.00;0.00;;;4.40;99.90;;;2.36;80.97;102357.50;4992608;28;20053;-72
2023/05/18 03:45:12;;;;;;;0.00;0.00;;;3.70;99.90;;;2.49;81.09;102362.00;4989942;28;20034;-73
2023/05/18 03:47:39;;;;;;;1.08;0.22;;;3.90;99.90;;;2.64;81.21;102361.31;4985968;28;20406;-73
2023/05/18 03:50:06;;;;;;;0.20;0.20;;;4.00;99.90;;;2.83;80.82;102368.50;4996586;28;20029;-73
2023/05/18 03:52:33;;;;;;;0.00;0.00;;;4.20;99.90;;;3.03;80.52;102366.09;4988994;28;20037;-73
2023/05/18 03:55:00;;;;;;;0.00;0.00;;;4.40;99.90;;;3.37;80.04;102382.09;4991241;28;20085;-74
2023/05/18 03:57:27;;;;;;;0.00;0.00;;;4.90;99.90;;;3.90;79.57;102381.66;4993383;28;20049;-73
2023/05/18 03:59:53;;;;;;;0.05;0.05;;;5.40;99.90;;;4.46;78.54;102388.09;4995388;28;20041;-73
2023/05/18 04:02:19;;;;;;;0.00;0.00;;;5.70;99.90;;;4.79;77.53;102393.47;4993392;28;20034;-74
2023/05/18 04:04:46;;;;;;;0.10;0.10;;;5.90;99.90;;;5.03;76.62;102396.19;4992531;28;20045;-74
2023/05/18 04:07:15;;;;;;;0.00;0.00;;;6.10;99.90;;;5.22;75.56;102404.06;4995130;28;20042;-73
2023/05/18 04:09:42;;;;;;;3.50;0.17;;;6.30;99.90;;;5.37;74.59;102391.03;4983743;28;20119;-73
2023/05/18 04:12:09;;;;;;;0.38;0.05;;;6.50;99.90;;;5.60;74.10;102404.13;4992956;28;20117;-73
2023/05/18 04:14:36;;;;;;;2.25;0.40;;;6.70;99.90;;;5.88;73.60;102412.84;4995375;28;21575;-73
2023/05/18 04:17:05;;;;;;;0.00;0.00;;;7.00;99.90;;;6.38;72.23;102418.06;4986690;28;20061;-73
2023/05/18 04:19:35;;;;;;;0.00;0.00;;;7.40;99.90;;;6.82;71.00;102428.38;4990505;28;20038;-73
2023/05/18 04:22:05;;;;;;;0.00;0.00;;;7.70;99.90;;;7.23;69.55;102429.06;4974970;28;20038;-74
2023/05/18 04:24:33;;;;;;;0.03;0.00;;;8.10;99.90;;;7.88;68.25;102435.63;4991855;28;20087;-74
2023/05/18 04:27:01;;;;;;;0.05;0.05;;;8.70;99.90;;;8.58;66.71;102442.00;4994359;28;20026;-74
2023/05/18 04:29:28;;;;;;;0.13;0.13;;;9.40;99.90;;;9.59;64.25;102455.59;4991115;28;20065;-73
2023/05/18 04:31:59;;;;;;;0.10;0.10;;;10.10;99.90;;;10.53;62.58;102472.47;4982562;28;20034;-73
2023/05/18 04:34:30;;;;;;;0.22;0.10;;;11.00;99.90;;;11.69;59.58;102479.72;4992519;28;20756;-73
2023/05/18 04:36:59;;;;;;;0.10;0.10;;;11.70;99.90;;;12.45;57.94;102491.94;4991840;28;20459;-73
2023/05/18 04:39:26;;;;;;;0.10;0.10;;;12.30;99.90;;;12.96;56.31;102489.69;4993771;28;20073;-73
2023/05/18 04:41:57;;;;;;;0.40;0.20;;;12.70;99.90;;;13.44;55.25;102497.16;4991676;28;20507;-73
2023/05/18 04:44:35;;;;;;;1.02;0.20;;;13.10;99.90;;;13.61;54.76;102499.28;4990502;28;20137;-74
2023/05/18 04:47:01;;;;;;;0.30;0.10;;;13.40;99.90;;;14.08;54.19;102516.31;5012129;28;20030;-74
2023/05/18 04:49:27;;;;;;;0.63;0.28;;;13.70;99.90;;;14.32;53.58;102519.06;4995577;28;20037;-74
2023/05/18 04:51:55;;;;;;;0.10;0.10;;;13.90;99.90;;;14.52;52.91;102513.06;4993279;28;20038;-74
2023/05/18 04:54:26;;;;;;;1.05;0.20;;;14.00;99.90;;;14.28;53.07;102515.63;4989500;28;20460;-74
2023/05/18 04:56:52;;;;;;;0.03;0.03;;;13.90;99.90;;;14.00;53.99;102512.16;4990478;28;20050;-73
2023/05/18 04:59:19;;;;;;;0.82;0.25;;;13.90;99.90;;;14.30;54.26;102512.94;4990882;28;20030;-73
2023/05/18 05:01:46;;;;;;;0.43;0.20;;;14.00;99.90;;;14.62;53.80;102513.63;4988495;28;20049;-74
2023/05/18 05:04:12;;;;;;;0.40;0.20;;;14.10;99.90;;;14.62;53.89;102513.63;4989604;28;20122;-75
2023/05/18 05:06:38;;;;;;;2.60;0.32;;;14.20;99.90;;;14.53;54.14;102507.69;4976918;28;20113;-73
2023/05/18 05:09:04;;;;;;;6.13;0.75;;;14.10;99.90;;;14.19;54.67;102509.75;4971558;28;20030;-74
2023/05/18 05:11:30;;;;;;;0.98;0.50;;;13.90;99.90;;;14.03;55.01;102506.75;4971877;28;20570;-74
2023/05/18 05:13:56;;;;;;;4.22;0.60;;;13.80;99.90;;;14.23;55.04;102517.53;4978026;28;20034;-73
2023/05/18 05:16:21;;;;;;;3.75;0.80;;;13.90;99.90;;;14.60;54.98;102516.34;4965548;28;20411;-74
2023/05/18 05:18:47;;;;;;;1.38;0.30;;;14.20;99.90;;;15.58;53.73;102533.06;4972761;28;20039;-74
2023/05/18 05:21:13;;;;;;;;;;;14.30;99.90;;;16.31;53.00;102547.00;4973095;28;20033;-74
2023/05/18 05:23:40;;;;;;;1.65;0.20;;;15.20;99.90;;;16.91;51.03;102555.06;4970263;28;19960;-74
2023/05/18 05:26:05;;;;;;;0.55;0.32;;;15.70;99.90;;;17.67;50.03;102569.34;4988887;28;20037;-74
2023/05/18 05:28:31;;;;;;;3.55;0.60;;;16.40;99.90;;;18.90;48.44;102586.44;4992439;28;20096;-73
2023/05/18 05:30:57;;;;;;;1.55;0.20;;;17.00;99.90;;;19.22;47.10;102598.06;4989756;28;20034;-74
2023/05/18 05:33:23;;;;;;;0.13;0.13;;;17.40;99.80;;;19.38;46.80;102593.66;4992340;28;20042;-74
2023/05/18 05:35:48;;;;;;;;;;;17.40;99.90;;;19.36;47.09;102598.22;4992955;28;20115;-74
2023/05/18 05:38:14;;;;;;;1.23;0.30;;;18.00;99.80;;;20.97;45.13;102622.94;4992498;28;19923;-73
2023/05/18 05:40:40;;;;;;;;;;;18.10;99.80;;;21.81;44.28;102630.22;4993007;28;20038;-74
2023/05/18 05:43:06;;;;;;;1.65;0.30;;;18.80;98.50;;;22.45;42.82;102637.75;4990968;28;19924;-75
2023/05/18 05:45:32;;;;;;;1.02;0.30;;;19.10;97.70;;;22.71;41.85;102644.03;4982520;28;20044;-73
2023/05/18 05:47:58;;;;;;;6.00;0.40;;;19.20;96.70;;;21.88;42.02;102628.88;4991517;28;20038;-74
2023/05/18 05:50:26;;;;;;;0.32;0.28;;;19.10;97.20;;;21.33;43.17;102616.25;5004824;28;20041;-74
2023/05/18 05:52:52;;;;;;;0.20;0.20;;;18.70;96.70;;;20.97;43.37;102620.28;4987606;28;20117;-74
2023/05/18 05:55:18;;;;;;;1.00;0.43;;;18.80;97.60;;;21.68;43.01;102634.66;5011746;28;20030;-74
2023/05/18 05:57:44;;;;;;;1.92;0.30;;;19.00;97.50;;;21.62;42.98;102635.91;4989872;28;20511;-75
2023/05/18 06:00:12;;;;;;;3.30;0.40;;;19.10;97.00;;;21.41;43.35;102635.44;4992916;28;20092;-74
2023/05/18 06:02:38;;;;;;;0.15;0.13;;;19.20;96.90;;;21.07;43.71;102632.13;4987827;28;20037;-73
2023/05/18 06:05:07;;;;;;;3.35;0.50;;;19.10;96.10;;;21.05;43.36;102636.72;4990681;28;20755;-74
2023/05/18 06:07:34;;;;;;;1.52;0.30;;;19.10;96.30;;;20.92;43.41;102646.44;4978845;28;20119;-74
2023/05/18 06:10:00;;;;;;;0.10;0.10;;;19.20;96.00;;;20.95;43.34;102648.97;4990538;28;20035;-74
2023/05/18 06:12:26;;;;;;;1.40;0.55;;;19.40;95.70;;;21.14;43.19;102637.97;4995725;28;20553;-74
2023/05/18 06:14:57;;;;;;;0.65;0.30;;;19.90;96.20;;;22.10;42.77;102665.91;4991277;28;20052;-74
2023/05/18 06:17:27;;;;;;;0.52;0.40;;;20.60;95.60;;;22.37;42.12;102672.28;4993225;28;21462;-74
2023/05/18 06:19:53;;;;;;;1.73;0.43;;;20.80;95.50;;;21.83;43.68;102657.78;4988047;28;20034;-75
2023/05/18 06:22:19;;;;;;;1.08;0.38;;;21.20;95.30;;;22.48;42.80;102667.06;4991460;28;20498;-74
2023/05/18 06:24:45;;;;;;;1.55;0.47;;;21.10;93.80;;;22.00;42.36;102674.63;4989708;28;20046;-74
2023/05/18 06:27:15;;;;;;;0.75;0.20;;;21.20;94.60;;;21.90;42.98;102669.88;4993473;28;20106;-74
2023/05/18 06:29:41;;;;;;;0.88;0.15;;;21.20;94.50;;;22.07;42.57;102670.59;4992675;28;20056;-74
2023/05/18 06:32:07;;;;;;;0.32;0.20;;;21.40;93.50;;;22.10;41.85;102678.47;5004968;28;20038;-74
2023/05/18 06:34:32;;;;;;;;;;;21.40;95.00;;;22.26;41.40;102679.19;5006569;28;20543;-74
2023/05/18 06:36:58;;;;;;;3.85;0.52;;;21.80;93.40;;;22.37;41.66;102683.84;4992673;28;19921;-75
2023/05/18 06:39:25;;;;;;;0.95;0.20;;;21.90;93.70;;;22.56;41.89;102691.56;4986422;28;20034;-75
2023/05/18 06:41:51;;;;;;;1.65;0.45;;;22.20;92.90;;;22.62;41.72;102693.84;4994224;28;20046;-74
2023/05/18 06:44:16;;;;;;;2.63;1.33;;;22.30;92.10;;;22.72;41.21;102702.13;4989295;28;20038;-74
2023/05/18 06:46:42;;;;;;;;;;;22.30;93.90;;;22.23;40.33;102700.88;4992881;28;20054;-74
2023/05/18 06:49:08;;;;;;;1.35;0.20;;;22.20;92.60;;;23.18;41.41;102731.28;4996002;28;19913;-74
2023/05/18 06:51:34;;;;;;;0.20;0.10;;;21.50;90.80;;;21.47;40.39;102711.94;4982601;28;20048;-75
2023/05/18 06:54:00;;;;;;;;;;;21.50;91.70;;;22.45;39.82;102729.00;4980641;28;20045;-75
2023/05/18 06:56:25;;;;;;;0.38;0.38;;;21.70;92.50;;;23.05;40.58;102743.84;5004908;28;19923;-75
2023/05/18 06:58:51;;;;;;;0.40;0.20;;;22.10;92.20;;;23.69;39.33;102751.97;4983159;28;20041;-74
2023/05/18 07:01:18;;;;;;;;;;;22.20;93.60;;;24.02;37.61;102755.97;5007941;28;20133;-74
2023/05/18 07:03:43;;;;;;;3.00;0.85;;;22.40;90.20;;;22.96;38.84;102747.09;4991409;28;20369;-75
2023/05/18 07:06:09;;;;;;;;;;;22.40;92.20;;;22.29;39.54;102732.69;4990148;28;20060;-74
2023/05/18 07:08:39;;;;;;;;;;;22.20;91.30;;;21.77;40.18;102719.00;4988922;28;19929;-74
2023/05/18 07:11:05;;;;;;;;;;;22.00;91.30;;;20.96;40.57;102709.56;4989107;28;20661;-75
2023/05/18 07:13:31;;;;;;;;;;;21.60;90.70;;;20.87;41.51;102710.13;4990777;28;19921;-75
2023/05/18 07:15:57;;;;;;;;;;;21.30;91.90;;;21.14;41.70;102717.47;4991891;28;20583;-75
2023/05/18 07:18:23;;;;;;;;;;;21.20;92.10;;;21.82;40.41;102724.97;4985391;28;19924;-74
2023/05/18 07:20:48;;;;;;;;;;;21.50;91.80;;;22.20;39.34;102730.56;4991161;28;19921;-74
2023/05/18 07:23:14;;;;;;;;;;;22.00;90.90;;;22.41;39.60;102736.38;4989392;28;19918;-75
2023/05/18 07:25:40;;;;;;;;;;;22.40;91.30;;;22.44;39.13;102738.00;4966434;28;20457;-75
2023/05/18 07:28:06;;;;;;;;;;;22.50;90.30;;;22.76;38.53;102751.13;4988204;28;19921;-75
2023/05/18 07:30:32;;;;;;;;;;;22.70;90.00;;;23.52;37.95;102764.78;4989199;28;20025;-74
2023/05/18 07:32:58;;;;;;;;;;;23.20;90.00;;;23.99;37.07;102767.78;4990090;28;19917;-76
2023/05/18 07:35:25;;;;;;;;;;;23.70;89.10;;;24.72;37.17;102780.41;4991307;28;19913;-75
2023/05/18 07:37:51;;;;;;;;;;;24.30;89.10;;;23.04;36.82;102767.16;4969810;28;19922;-75
2023/05/18 07:40:17;;;;;;;;;;;24.20;84.80;;;24.15;36.42;102779.16;4987922;28;19917;-76
2023/05/18 07:42:43;;;;;;;;;;;24.50;85.40;;;24.79;36.51;102788.91;4994375;28;19913;-75
2023/05/18 07:45:09;;;;;;;;;;;25.00;86.90;;;25.24;34.91;102801.75;4989946;28;19917;-75
2023/05/18 07:47:35;;;;;;;;;;;25.30;83.60;;;25.78;34.61;102803.81;4972628;28;19926;-75
2023/05/18 07:50:01;;;;;;;;;;;25.60;84.40;;;25.16;34.59;102802.28;4993996;28;19914;-75
2023/05/18 07:52:27;;;;;;;;;;;25.50;83.00;;;25.93;35.70;102804.47;4971083;28;19975;-76
2023/05/18 07:54:56;;;;;;;;;;;25.90;85.40;;;27.03;34.14;102818.09;4986216;28;19925;-73
2023/05/18 07:57:22;;;;;;;;;;;26.60;83.80;;;24.18;33.26;102786.16;4972029;28;19926;-73
2023/05/18 07:59:48;;;;;;;;;;;25.90;76.00;;;24.26;34.85;102791.84;4986943;28;20430;-73
2023/05/18 08:02:15;;;;;;;;;;;25.60;79.30;;;23.84;35.12;102785.00;4987494;28;19982;-73
2023/05/18 08:04:41;;;;;;;;;;;25.20;79.10;;;23.84;35.81;102782.31;4991077;28;19977;-73
2023/05/18 08:07:07;;;;;;;;;;;24.90;81.10;;;24.58;35.26;102798.56;4987875;28;20342;-73
2023/05/18 08:09:33;;;;;;;;;;;25.10;80.00;;;24.54;34.61;102795.25;4989767;28;19913;-73
2023/05/18 08:11:59;;;;;;;;;;;25.10;80.30;;;23.60;34.81;102785.72;4978784;28;19932;-72
2023/05/18 08:14:25;;;;;;;;;;;25.50;79.70;;;24.04;36.47;102776.41;4984692;28;19929;-73
2023/05/18 08:16:51;;;;;;;;;;;24.60;84.20;;;23.95;36.63;102771.66;4968590;28;19922;-73
2023/05/18 08:19:16;;;;;;;;;;;24.20;83.30;;;24.60;37.34;102780.47;4990690;28;19921;-74
2023/05/18 08:21:44;;;;;;;;;;;24.10;87.00;;;24.71;37.54;102776.03;4990710;28;20298;-73
2023/05/18 08:24:10;;;;;;;;;;;23.90;87.10;;;24.05;37.13;102771.88;4994784;28;19947;-74
2023/05/18 08:26:36;;;;;;;;;;;23.60;86.00;;;21.82;36.29;102754.44;4994445;28;19914;-75
2023/05/18 08:29:08;;;;;;;;;;;22.60;81.30;;;20.90;37.74;102736.72;4992974;28;20370;-74
2023/05/18 08:31:35;;;;;;;;;;;21.70;83.30;;;21.67;40.25;102742.84;4987907;28;19921;-75
2023/05/18 08:34:03;;;;;;;;;;;21.30;90.10;;;21.76;39.17;102741.41;4991158;28;19936;-75
2023/05/18 08:36:29;;;;;;;;;;;21.00;89.00;;;20.74;38.70;102723.38;4999772;28;19921;-75
2023/05/18 08:38:54;;;;;;;;;;;20.70;87.10;;;20.28;40.89;102712.59;4995484;28;19917;-74
2023/05/18 08:41:38;;;;;;;;;;;20.20;89.60;;;20.27;41.73;102711.72;4992687;28;19924;-74
2023/05/18 08:44:24;;;;;;;;;;;19.90;90.50;;;19.97;42.62;102705.41;4987129;28;19964;-75
2023/05/18 08:46:50;;;;;;;;;;;19.70;92.00;;;19.72;42.02;102692.50;4996104;28;19921;-75
2023/05/18 08:49:18;;;;;;;;;;;19.40;91.00;;;19.58;42.37;102691.41;4972717;28;19960;-75
2023/05/18 08:51:53;;;;;;;;;;;19.10;91.40;;;19.90;43.37;102693.34;4976422;28;20569;-72
2023/05/18 08:54:20;;;;;;;;;;;18.60;92.90;;;20.45;43.62;102700.91;4992953;28;19980;-74
2023/05/18 08:56:47;;;;;;;;;;;19.10;94.00;;;20.81;42.34;102700.63;4991052;28;19922;-73
2023/05/18 08:59:15;;;;;;;;;;;19.40;93.00;;;21.63;42.28;102707.31;4995611;28;20333;-73
2023/05/18 09:01:41;;;;;;;;;;;19.90;93.30;;;22.46;40.06;102723.53;4992695;28;19925;-73
2023/05/18 09:04:08;;;;;;;;;;;20.60;92.10;;;22.89;38.51;102728.75;4977820;28;19960;-73
2023/05/18 09:06:35;;;;;;;;;;;21.30;90.90;;;23.47;39.76;102731.09;4988421;28;19918;-73
2023/05/18 09:09:05;;;;;;;;;;;21.90;91.60;;;23.74;37.52;102744.44;4994244;28;19921;-73
2023/05/18 09:11:34;;;;;;;;;;;22.40;89.50;;;22.80;38.37;102731.16;4972333;28;20549;-73
2023/05/18 09:14:03;;;;;;;;;;;22.20;87.30;;;21.28;37.51;102722.88;4992995;28;20351;-73
2023/05/18 09:16:29;;;;;;;;;;;21.80;84.00;;;21.13;38.49;102721.13;4991503;28;19975;-73
2023/05/18 09:18:56;;;;;;;;;;;21.40;85.70;;;20.79;37.83;102707.88;4994582;28;19921;-74
2023/05/18 09:21:25;;;;;;;;;;;21.00;84.70;;;20.34;39.98;102695.31;4971166;28;19968;-72
2023/05/18 09:23:54;;;;;;;;;;;20.60;88.00;;;20.31;40.87;102700.84;4987995;28;19913;-73
2023/05/18 09:26:23;;;;;;;;;;;20.20;89.80;;;20.03;40.64;102689.03;4976225;28;20440;-73
2023/05/18 09:28:52;;;;;;;;;;;19.80;89.70;;;19.87;41.08;102684.53;4974851;28;20286;-73
2023/05/18 09:31:19;;;;;;;;;;;19.50;90.60;;;19.70;41.89;102676.56;4971317;28;19918;-73
2023/05/18 09:33:46;;;;;;;;;;;19.30;91.30;;;19.68;43.32;102679.28;4990887;28;19932;-72
2023/05/18 09:36:14;;;;;;;;;;;19.10;92.20;;;19.50;42.27;102666.91;4992688;28;19917;-73
2023/05/18 09:38:45;;;;;;;;;;;19.00;91.70;;;19.51;43.00;102670.47;4995075;28;20047;-73
2023/05/18 09:41:16;;;;;;;;;;;18.80;92.40;;;19.62;42.33;102666.25;4995079;28;19921;-73
2023/05/18 09:43:42;;;;;;;;;;;18.80;92.20;;;19.31;42.26;102661.69;4991124;28;19917;-75
2023/05/18 09:46:10;;;;;;;;;;;18.90;92.10;;;19.43;41.08;102663.69;4986463;28;19995;-74
2023/05/18 09:48:46;;;;;;;;;;;19.00;90.40;;;19.96;41.45;102680.47;4979684;28;19920;-75
2023/05/18 09:51:15;;;;;;;;;;;19.40;90.90;;;20.79;40.85;102691.81;4995701;28;19920;-75
2023/05/18 09:53:42;;;;;;;;;;;19.90;89.60;;;20.78;38.77;102690.13;4990548;28;19917;-75
2023/05/18 09:56:10;;;;;;;;;;;20.10;89.10;;;21.03;39.66;102702.03;4994174;28;20032;-75
2023/05/18 09:58:40;;;;;;;;;;;20.40;90.30;;;21.59;38.56;102697.75;4994888;28;20485;-75
2023/05/18 10:01:09;;;;;;;;;;;20.80;88.10;;;21.78;39.13;102707.34;4994869;28;20000;-75
2023/05/18 10:03:36;;;;;;;;;;;21.20;88.20;;;21.41;37.42;102704.22;4993079;28;19919;-75
2023/05/18 10:06:07;;;;;;;;;;;21.60;83.90;;;20.70;38.54;102687.03;4991244;28;19922;-75
2023/05/18 10:08:35;;;;;;;;;;;21.60;84.70;;;19.34;38.72;102669.53;4970716;28;19960;-75
2023/05/18 10:11:02;;;;;;;;;;;21.10;81.30;;;19.98;38.98;102680.41;5003247;28;20404;-73
2023/05/18 10:13:32;;;;;;;;;;;20.90;84.70;;;20.56;40.61;102687.81;4984373;28;19917;-73
2023/05/18 10:16:01;;;;;;;;;;;21.00;88.20;;;21.12;39.68;102692.59;4995249;28;19931;-73
2023/05/18 10:18:52;;;;;;;;;;;21.40;88.00;;;21.56;39.14;102705.13;4991748;28;19985;-74
2023/05/18 10:21:21;;;;;;;;;;;21.70;86.50;;;21.65;38.16;102707.25;4991213;28;20495;-73
2023/05/18 10:23:47;;;;;;;;;;;22.10;85.50;;;21.24;38.05;102702.56;4994642;28;19945;-73
2023/05/18 10:26:13;;;;;;;;;;;22.10;83.20;;;21.12;39.44;102704.16;4994063;28;19914;-74
2023/05/18 10:28:46;;;;;;;;;;;22.00;86.60;;;20.79;39.37;102693.66;4998276;28;20346;-74
2023/05/18 10:31:17;;;;;;;;;;;21.80;86.00;;;20.24;39.32;102690.50;4992760;28;20397;-73
2023/05/18 10:33:44;;;;;;;;;;;21.40;84.50;;;19.56;40.98;102668.41;4995562;28;19951;-73
2023/05/18 10:36:14;;;;;;;;;;;20.90;86.20;;;19.32;40.97;102663.41;4999663;28;19971;-73
2023/05/18 10:38:44;;;;;;;;;;;20.50;86.60;;;19.13;41.06;102660.84;4971028;28;19998;-73
2023/05/18 10:41:14;;;;;;;;;;;20.30;87.00;;;19.14;41.38;102662.59;4971964;28;19973;-73